createdAt,value
2023-04-12T00:00:19.871Z,100.00
2023-04-12T00:01:24.454Z,100.00
2023-04-12T00:02:28.881Z,100.00
2023-04-12T00:03:38.805Z,100.00
2023-04-12T00:04:43.688Z,100.00
2023-04-12T00:05:49.036Z,100.00
2023-04-12T00:06:54.717Z,100.00
2023-04-12T00:08:04.234Z,100.00
2023-04-12T00:09:09.088Z,100.00
2023-04-12T00:10:14.307Z,100.00
2023-04-12T00:11:19.241Z,100.00
2023-04-12T00:12:24.579Z,100.00
2023-04-12T00:13:31.185Z,100.00
2023-04-12T00:14:36.092Z,100.00
2023-04-12T00:15:41.002Z,100.00
2023-04-12T00:16:48.228Z,100.00
2023-04-12T00:17:52.795Z,100.00
2023-04-12T00:18:57.774Z,100.00
2023-04-12T00:20:06.574Z,99.36
2023-04-12T00:21:12.009Z,99.15
2023-04-12T00:22:17.054Z,99.22
2023-04-12T00:23:21.311Z,99.30
2023-04-12T00:24:27.036Z,98.81
2023-04-12T00:25:31.580Z,98.51
2023-04-12T00:26:39.371Z,98.80
2023-04-12T00:27:43.672Z,99.47
2023-04-12T00:28:48.520Z,99.84
2023-04-12T00:29:53.763Z,100.00
2023-04-12T00:30:59.283Z,100.00
2023-04-12T00:32:06.037Z,100.00
2023-04-12T00:33:11.183Z,100.00
2023-04-12T00:34:16.325Z,100.00
2023-04-12T00:35:20.638Z,100.00
2023-04-12T00:36:25.628Z,100.00
2023-04-12T00:37:30.893Z,100.00
2023-04-12T00:38:39.990Z,100.00
2023-04-12T00:39:44.819Z,100.00
2023-04-12T00:40:49.344Z,100.00
2023-04-12T00:41:53.857Z,100.00
2023-04-12T00:42:58.162Z,100.00
2023-04-12T00:44:02.961Z,100.00
2023-04-12T00:45:08.621Z,100.00
2023-04-12T00:46:20.015Z,100.00
2023-04-12T00:47:25.676Z,100.00
2023-04-12T00:48:32.448Z,100.00
2023-04-12T00:49:39.663Z,100.00
2023-04-12T00:50:47.806Z,100.00
2023-04-12T00:51:53.325Z,100.00
2023-04-12T00:52:59.571Z,100.00
2023-04-12T00:54:04.545Z,100.00
2023-04-12T00:55:10.741Z,100.00
2023-04-12T00:56:19.434Z,100.00
2023-04-12T00:57:23.861Z,100.00
2023-04-12T00:58:28.477Z,100.00
2023-04-12T00:59:33.243Z,100.00
2023-04-12T01:00:37.429Z,100.00
2023-04-12T01:01:42.076Z,100.00
2023-04-12T01:02:50.805Z,100.00
2023-04-12T01:04:01.483Z,100.00
2023-04-12T01:05:07.945Z,100.00
2023-04-12T01:06:42.212Z,100.00
2023-04-12T01:08:24.033Z,100.00
2023-04-12T01:10:02.554Z,100.00
2023-04-12T01:11:46.062Z,100.00
2023-04-12T01:13:20.988Z,100.00
2023-04-12T01:14:55.944Z,100.00
2023-04-12T01:16:56.033Z,100.00
2023-04-12T01:18:08.846Z,100.00
2023-04-12T01:19:35.257Z,100.00
2023-04-12T01:21:11.107Z,100.00
2023-04-12T01:22:59.158Z,100.00
2023-04-12T01:24:42.571Z,100.00
2023-04-12T01:26:26.829Z,100.00
2023-04-12T01:27:50.788Z,100.00
2023-04-12T01:28:57.936Z,100.00
2023-04-12T01:30:05.333Z,100.00
2023-04-12T01:31:13.437Z,100.00
2023-04-12T01:32:19.793Z,100.00
2023-04-12T01:33:32.102Z,100.00
2023-04-12T01:34:38.766Z,100.00
2023-04-12T01:35:45.143Z,100.00
2023-04-12T01:36:52.674Z,100.00
2023-04-12T01:37:59.436Z,100.00
2023-04-12T01:39:11.233Z,100.00
2023-04-12T01:40:20.472Z,100.00
2023-04-12T01:41:25.680Z,100.00
2023-04-12T01:42:30.085Z,100.00
2023-04-12T01:43:43.831Z,100.00
2023-04-12T01:44:50.546Z,100.00
2023-04-12T01:45:56.060Z,100.00
2023-04-12T01:47:01.145Z,100.00
2023-04-12T01:48:09.311Z,100.00
2023-04-12T01:49:16.839Z,100.00
2023-04-12T01:50:35.976Z,100.00
2023-04-12T01:52:13.108Z,100.00
2023-04-12T01:53:35.118Z,100.00
2023-04-12T01:54:44.933Z,100.00
2023-04-12T01:56:00.290Z,100.00
2023-04-12T01:57:08.802Z,100.00
2023-04-12T01:58:17.291Z,100.00
2023-04-12T01:59:27.340Z,100.00
2023-04-12T02:00:36.040Z,100.00
2023-04-12T02:01:43.575Z,100.00
2023-04-12T02:02:48.916Z,100.00
2023-04-12T02:03:54.899Z,100.00
2023-04-12T02:05:02.199Z,100.00
2023-04-12T02:06:09.345Z,100.00
2023-04-12T02:07:19.238Z,100.00
2023-04-12T02:08:24.665Z,100.00
2023-04-12T02:09:28.908Z,100.00
2023-04-12T02:10:36.774Z,100.00
2023-04-12T02:11:42.113Z,100.00
2023-04-12T02:12:46.561Z,100.00
2023-04-12T02:13:50.617Z,100.00
2023-04-12T02:14:55.242Z,100.00
2023-04-12T02:16:02.465Z,100.00
2023-04-12T02:17:08.917Z,100.00
2023-04-12T02:18:14.718Z,100.00
2023-04-12T02:19:19.891Z,100.00
2023-04-12T02:20:26.492Z,100.00
2023-04-12T02:21:44.173Z,100.00
2023-04-12T02:22:48.713Z,100.00
2023-04-12T02:23:56.593Z,100.00
2023-04-12T02:25:08.276Z,100.00
2023-04-12T02:26:18.640Z,100.00
2023-04-12T02:27:23.122Z,100.00
2023-04-12T02:28:27.900Z,100.00
2023-04-12T02:29:32.090Z,100.00
2023-04-12T02:30:36.035Z,100.00
2023-04-12T02:31:40.755Z,100.00
2023-04-12T02:32:46.137Z,100.00
2023-04-12T02:33:50.929Z,100.00
2023-04-12T02:34:55.629Z,100.00
2023-04-12T02:36:02.942Z,100.00
2023-04-12T02:37:09.512Z,100.00
2023-04-12T02:38:13.921Z,100.00
2023-04-12T02:39:22.468Z,100.00
2023-04-12T02:40:28.008Z,100.00
2023-04-12T02:41:32.476Z,100.00
2023-04-12T02:42:40.391Z,100.00
2023-04-12T02:43:46.673Z,100.00
2023-04-12T02:44:52.919Z,100.00
2023-04-12T02:45:57.287Z,100.00
2023-04-12T02:47:01.977Z,100.00
2023-04-12T02:48:06.706Z,100.00
2023-04-12T02:49:11.689Z,100.00
2023-04-12T02:50:18.663Z,100.00
2023-04-12T02:51:23.533Z,100.00
2023-04-12T02:52:30.448Z,100.00
2023-04-12T02:53:35.005Z,99.97
2023-04-12T02:54:39.736Z,99.75
2023-04-12T02:55:44.944Z,99.54
2023-04-12T02:56:49.069Z,99.52
2023-04-12T02:57:55.225Z,99.83
2023-04-12T02:58:59.603Z,98.46
2023-04-12T03:00:16.851Z,98.62
2023-04-12T03:01:21.565Z,98.46
2023-04-12T03:02:27.176Z,99.24
2023-04-12T03:03:33.100Z,99.05
2023-04-12T03:04:40.685Z,98.35
2023-04-12T03:05:47.550Z,98.02
2023-04-12T03:06:55.214Z,98.10
2023-04-12T03:08:01.192Z,98.12
2023-04-12T03:09:06.021Z,98.93
2023-04-12T03:10:21.479Z,98.02
2023-04-12T03:11:29.065Z,97.55
2023-04-12T03:12:36.610Z,97.56
2023-04-12T03:13:44.016Z,97.32
2023-04-12T03:14:51.104Z,97.41
2023-04-12T03:16:04.492Z,97.00
2023-04-12T03:17:16.480Z,97.44
2023-04-12T03:18:25.276Z,96.85
2023-04-12T03:19:33.514Z,97.24
2023-04-12T03:20:47.489Z,97.02
2023-04-12T03:21:52.858Z,97.61
2023-04-12T03:22:59.954Z,98.00
2023-04-12T03:24:05.595Z,97.43
2023-04-12T03:25:13.344Z,97.10
2023-04-12T03:26:21.378Z,97.14
2023-04-12T03:27:28.173Z,97.11
2023-04-12T03:28:35.639Z,96.88
2023-04-12T03:29:48.752Z,96.96
2023-04-12T03:31:06.774Z,96.81
2023-04-12T03:32:15.370Z,96.95
2023-04-12T03:33:22.554Z,96.76
2023-04-12T03:34:33.368Z,96.44
2023-04-12T03:35:38.261Z,96.31
2023-04-12T03:36:42.977Z,96.50
2023-04-12T03:37:48.619Z,97.16
2023-04-12T03:38:54.384Z,97.10
2023-04-12T03:40:12.876Z,96.67
2023-04-12T03:41:18.995Z,97.00
2023-04-12T03:42:33.587Z,97.27
2023-04-12T03:43:39.923Z,96.91
2023-04-12T03:44:52.321Z,96.78
2023-04-12T03:46:02.259Z,96.74
2023-04-12T03:47:12.743Z,97.17
2023-04-12T03:48:19.809Z,97.12
2023-04-12T03:49:39.662Z,97.09
2023-04-12T03:50:48.767Z,96.87
2023-04-12T03:51:57.983Z,96.71
2023-04-12T03:53:04.008Z,96.91
2023-04-12T03:54:21.605Z,97.12
2023-04-12T03:55:30.239Z,97.40
2023-04-12T03:56:40.059Z,98.14
2023-04-12T03:57:58.755Z,98.36
2023-04-12T03:59:09.458Z,97.89
2023-04-12T04:00:37.082Z,99.21
2023-04-12T04:02:03.494Z,99.59
2023-04-12T04:03:19.712Z,98.66
2023-04-12T04:04:32.092Z,98.77
2023-04-12T04:05:37.464Z,98.54
2023-04-12T04:06:45.495Z,98.39
2023-04-12T04:07:50.034Z,98.20
2023-04-12T04:08:56.825Z,98.32
2023-04-12T04:10:02.852Z,98.61
2023-04-12T04:11:09.905Z,99.35
2023-04-12T04:12:20.190Z,99.35
2023-04-12T04:13:26.389Z,97.92
2023-04-12T04:14:49.693Z,97.90
2023-04-12T04:16:11.714Z,97.27
2023-04-12T04:17:21.071Z,97.84
2023-04-12T04:18:25.490Z,97.27
2023-04-12T04:19:31.905Z,97.03
2023-04-12T04:20:41.673Z,97.24
2023-04-12T04:21:50.438Z,97.38
2023-04-12T04:23:04.944Z,97.36
2023-04-12T04:24:13.742Z,97.25
2023-04-12T04:25:42.628Z,98.07
2023-04-12T04:26:55.356Z,97.79
2023-04-12T04:28:11.763Z,96.92
2023-04-12T04:29:16.549Z,96.73
2023-04-12T04:30:23.584Z,97.35
2023-04-12T04:31:39.105Z,97.48
2023-04-12T04:33:03.448Z,97.70
2023-04-12T04:34:53.522Z,97.04
2023-04-12T04:36:02.402Z,96.73
2023-04-12T04:37:19.054Z,96.45
2023-04-12T04:38:37.606Z,96.82
2023-04-12T04:39:41.781Z,96.88
2023-04-12T04:40:46.662Z,96.50
2023-04-12T04:41:55.183Z,96.35
2023-04-12T04:43:18.860Z,96.71
2023-04-12T04:44:27.501Z,96.67
2023-04-12T04:45:43.270Z,96.17
2023-04-12T04:46:51.449Z,96.47
2023-04-12T04:48:01.771Z,96.22
2023-04-12T04:49:14.423Z,96.04
2023-04-12T04:50:28.348Z,96.77
2023-04-12T04:51:47.282Z,96.45
2023-04-12T04:52:52.094Z,96.33
2023-04-12T04:53:56.969Z,96.47
2023-04-12T04:55:02.908Z,96.80
2023-04-12T04:56:08.818Z,96.70
2023-04-12T04:57:13.047Z,96.95
2023-04-12T04:58:18.242Z,96.68
2023-04-12T04:59:24.489Z,96.49
2023-04-12T05:00:32.139Z,97.45
2023-04-12T05:01:41.824Z,96.89
2023-04-12T05:02:48.038Z,96.38
2023-04-12T05:03:53.116Z,96.84
2023-04-12T05:05:00.438Z,96.68
2023-04-12T05:06:10.969Z,96.08
2023-04-12T05:07:20.207Z,96.53
2023-04-12T05:08:31.096Z,96.38
2023-04-12T05:09:48.250Z,97.00
2023-04-12T05:11:01.474Z,97.48
2023-04-12T05:12:16.442Z,97.91
2023-04-12T05:13:41.428Z,97.46
2023-04-12T05:15:08.595Z,96.66
2023-04-12T05:16:26.446Z,96.79
2023-04-12T05:17:31.095Z,96.33
2023-04-12T05:18:46.553Z,96.54
2023-04-12T05:20:00.504Z,96.87
2023-04-12T05:21:25.143Z,96.19
2023-04-12T05:22:36.006Z,96.20
2023-04-12T05:23:51.184Z,95.70
2023-04-12T05:24:56.718Z,95.86
2023-04-12T05:26:06.168Z,95.67
2023-04-12T05:27:17.023Z,95.59
2023-04-12T05:28:24.983Z,95.60
2023-04-12T05:29:29.339Z,95.60
2023-04-12T05:30:35.220Z,95.68
2023-04-12T05:33:26.372Z,96.11
2023-04-12T05:34:36.080Z,95.33
2023-04-12T05:35:44.746Z,95.34
2023-04-12T05:36:53.612Z,94.87
2023-04-12T05:38:01.609Z,94.65
2023-04-12T05:39:18.815Z,94.73
2023-04-12T05:40:44.849Z,94.47
2023-04-12T05:41:56.305Z,95.07
2023-04-12T05:43:08.708Z,95.31
2023-04-12T05:44:21.567Z,95.55
2023-04-12T05:45:25.470Z,95.29
2023-04-12T05:46:31.610Z,94.83
2023-04-12T05:47:39.569Z,94.98
2023-04-12T05:48:43.946Z,95.50
2023-04-12T05:51:39.861Z,96.18
2023-04-12T05:53:09.678Z,96.20
2023-04-12T05:54:21.056Z,96.05
2023-04-12T05:55:37.752Z,96.34
2023-04-12T05:57:14.315Z,96.35
2023-04-12T05:58:35.441Z,96.12
2023-04-12T06:00:19.432Z,96.57
2023-04-12T06:03:05.802Z,96.20
2023-04-12T06:04:12.893Z,96.41
2023-04-12T06:05:21.043Z,96.43
2023-04-12T06:06:46.301Z,96.17
2023-04-12T06:08:03.247Z,96.09
2023-04-12T06:09:18.205Z,96.38
2023-04-12T06:12:06.573Z,96.12
2023-04-12T06:13:17.225Z,96.06
2023-04-12T06:14:30.875Z,95.89
2023-04-12T06:15:45.203Z,95.84
2023-04-12T06:16:54.380Z,95.79
2023-04-12T06:18:04.127Z,95.62
2023-04-12T06:19:12.554Z,95.30
2023-04-12T06:20:22.686Z,94.65
2023-04-12T06:21:29.229Z,94.25
2023-04-12T06:22:38.055Z,94.56
2023-04-12T06:23:49.508Z,94.14
2023-04-12T06:25:02.933Z,93.95
2023-04-12T06:26:12.804Z,93.82
2023-04-12T06:28:02.642Z,94.22
2023-04-12T06:29:10.464Z,94.48
2023-04-12T06:30:30.569Z,94.18
2023-04-12T06:31:52.736Z,93.73
2023-04-12T06:32:57.901Z,93.77
2023-04-12T06:34:08.874Z,93.21
2023-04-12T06:35:13.529Z,93.43
2023-04-12T06:36:21.434Z,93.00
2023-04-12T06:37:27.398Z,92.85
2023-04-12T06:38:31.638Z,92.83
2023-04-12T06:39:40.001Z,92.96
2023-04-12T06:40:44.736Z,92.85
2023-04-12T06:41:51.169Z,93.42
2023-04-12T06:43:11.125Z,93.29
2023-04-12T06:44:28.562Z,93.02
2023-04-12T06:45:41.788Z,93.01
2023-04-12T06:46:51.835Z,92.43
2023-04-12T06:48:03.352Z,92.70
2023-04-12T06:49:08.416Z,92.34
2023-04-12T06:50:27.500Z,92.03
2023-04-12T06:51:46.084Z,91.99
2023-04-12T06:52:55.988Z,92.12
2023-04-12T06:54:01.602Z,91.86
2023-04-12T06:55:08.041Z,92.12
2023-04-12T06:56:12.776Z,92.99
2023-04-12T06:57:17.172Z,93.55
2023-04-12T06:58:24.029Z,92.84
2023-04-12T06:59:31.457Z,91.84
2023-04-12T07:00:36.995Z,91.72
2023-04-12T07:01:43.011Z,91.82
2023-04-12T07:02:47.882Z,91.84
2023-04-12T07:03:52.370Z,91.03
2023-04-12T07:04:58.030Z,91.46
2023-04-12T07:06:07.771Z,91.56
2023-04-12T07:07:23.181Z,91.06
2023-04-12T07:08:30.117Z,90.58
2023-04-12T07:09:34.447Z,91.48
2023-04-12T07:10:39.262Z,91.76
2023-04-12T07:11:44.998Z,91.40
2023-04-12T07:12:52.505Z,91.05
2023-04-12T07:13:56.957Z,90.17
2023-04-12T07:15:02.384Z,90.61
2023-04-12T07:16:09.626Z,90.61
2023-04-12T07:17:15.408Z,90.35
2023-04-12T07:18:19.881Z,89.57
2023-04-12T07:19:25.162Z,89.68
2023-04-12T07:20:30.169Z,89.22
2023-04-12T07:21:35.247Z,88.65
2023-04-12T07:22:40.063Z,88.94
2023-04-12T07:23:45.216Z,89.05
2023-04-12T07:24:52.988Z,89.14
2023-04-12T07:26:04.915Z,88.79
2023-04-12T07:27:17.139Z,89.11
2023-04-12T07:28:27.845Z,89.10
2023-04-12T07:29:38.266Z,88.84
2023-04-12T07:30:50.968Z,88.45
2023-04-12T07:32:03.743Z,88.92
2023-04-12T07:33:18.912Z,88.65
2023-04-12T07:34:27.158Z,87.63
2023-04-12T07:35:36.152Z,88.09
2023-04-12T07:36:42.224Z,88.13
2023-04-12T07:37:53.316Z,87.42
2023-04-12T07:39:03.654Z,86.81
2023-04-12T07:40:10.737Z,87.10
2023-04-12T07:41:19.718Z,86.99
2023-04-12T07:42:30.801Z,87.23
2023-04-12T07:43:41.578Z,87.09
2023-04-12T07:44:48.443Z,86.95
2023-04-12T07:46:15.617Z,86.60
2023-04-12T07:47:21.029Z,86.86
2023-04-12T07:48:27.571Z,86.81
2023-04-12T07:49:35.253Z,86.88
2023-04-12T07:50:44.061Z,86.83
2023-04-12T07:51:49.009Z,86.41
2023-04-12T07:53:22.865Z,85.90
2023-04-12T07:54:33.145Z,85.78
2023-04-12T07:55:40.706Z,85.68
2023-04-12T07:57:06.290Z,86.25
2023-04-12T07:58:17.915Z,86.16
2023-04-12T07:59:29.462Z,85.78
2023-04-12T08:00:36.037Z,85.46
2023-04-12T08:01:52.632Z,84.93
2023-04-12T08:03:08.253Z,85.16
2023-04-12T08:04:13.061Z,84.87
2023-04-12T08:05:21.042Z,84.95
2023-04-12T08:06:31.681Z,84.80
2023-04-12T08:08:04.341Z,84.81
2023-04-12T08:09:12.159Z,84.53
2023-04-12T08:10:17.896Z,84.38
2023-04-12T08:11:43.620Z,83.70
2023-04-12T08:12:54.827Z,83.16
2023-04-12T08:13:58.956Z,82.68
2023-04-12T08:15:08.873Z,82.16
2023-04-12T08:16:16.625Z,82.36
2023-04-12T08:17:29.724Z,82.44
2023-04-12T08:18:34.047Z,82.51
2023-04-12T08:19:42.638Z,82.76
2023-04-12T08:20:47.444Z,82.88
2023-04-12T08:21:52.485Z,82.18
2023-04-12T08:23:05.314Z,81.98
2023-04-12T08:24:10.357Z,82.24
2023-04-12T08:25:17.628Z,82.57
2023-04-12T08:26:23.623Z,82.78
2023-04-12T08:27:31.041Z,82.59
2023-04-12T08:28:38.453Z,82.63
2023-04-12T08:29:59.755Z,82.56
2023-04-12T08:31:08.230Z,82.57
2023-04-12T08:32:15.807Z,82.51
2023-04-12T08:33:26.115Z,82.58
2023-04-12T08:34:33.343Z,82.03
2023-04-12T08:35:47.230Z,81.55
2023-04-12T08:37:00.833Z,81.06
2023-04-12T08:38:10.917Z,80.85
2023-04-12T08:39:32.179Z,80.55
2023-04-12T08:40:52.528Z,80.26
2023-04-12T08:42:03.020Z,80.09
2023-04-12T08:43:16.609Z,79.40
2023-04-12T08:44:45.742Z,79.47
2023-04-12T08:46:04.608Z,79.35
2023-04-12T08:47:16.234Z,78.34
2023-04-12T08:48:26.572Z,78.96
2023-04-12T08:50:00.290Z,78.05
2023-04-12T08:51:21.238Z,77.73
2023-04-12T08:52:25.297Z,77.53
2023-04-12T08:53:29.836Z,75.63
2023-04-12T08:54:41.021Z,75.88
2023-04-12T08:56:12.398Z,75.49
2023-04-12T08:57:19.207Z,74.37
2023-04-12T08:58:25.231Z,72.54
2023-04-12T08:59:31.684Z,74.05
2023-04-12T09:00:38.564Z,73.42
2023-04-12T09:01:46.580Z,73.82
2023-04-12T09:02:51.989Z,72.43
2023-04-12T09:03:58.094Z,71.77
2023-04-12T09:05:02.910Z,72.11
2023-04-12T09:06:08.106Z,72.06
2023-04-12T09:07:33.508Z,70.56
2023-04-12T09:09:04.953Z,70.74
2023-04-12T09:10:42.359Z,71.12
2023-04-12T09:11:46.426Z,71.48
2023-04-12T09:12:54.921Z,70.43
2023-04-12T09:14:03.257Z,70.71
2023-04-12T09:15:18.430Z,67.93
2023-04-12T09:16:47.232Z,68.40
2023-04-12T09:18:16.737Z,68.39
2023-04-12T09:19:39.818Z,67.46
2023-04-12T09:20:47.878Z,67.58
2023-04-12T09:22:02.684Z,66.42
2023-04-12T09:23:26.488Z,65.66
2023-04-12T09:24:48.870Z,64.86
2023-04-12T09:25:59.034Z,66.07
2023-04-12T09:27:25.326Z,64.45
2023-04-12T09:28:34.370Z,65.00
2023-04-12T09:29:38.806Z,64.66
2023-04-12T09:30:43.404Z,64.54
2023-04-12T09:32:00.189Z,64.75
2023-04-12T09:33:13.899Z,64.28
2023-04-12T09:34:31.968Z,64.04
2023-04-12T09:35:36.765Z,63.94
2023-04-12T09:36:42.087Z,63.58
2023-04-12T09:37:46.377Z,61.43
2023-04-12T09:39:05.000Z,60.88
2023-04-12T09:40:11.260Z,61.10
2023-04-12T09:41:26.920Z,60.17
2023-04-12T09:42:50.206Z,60.70
2023-04-12T09:44:04.643Z,59.89
2023-04-12T09:45:29.395Z,61.54
2023-04-12T09:46:36.849Z,59.57
2023-04-12T09:47:43.733Z,60.52
2023-04-12T09:49:03.874Z,60.63
2023-04-12T09:50:24.788Z,59.76
2023-04-12T09:51:38.072Z,59.25
2023-04-12T09:52:44.157Z,59.44
2023-04-12T09:53:52.217Z,59.52
2023-04-12T09:54:58.711Z,60.02
2023-04-12T09:56:12.458Z,60.01
2023-04-12T09:57:25.624Z,61.56
2023-04-12T09:58:44.615Z,61.83
2023-04-12T10:00:06.932Z,61.65
2023-04-12T10:01:18.019Z,61.44
2023-04-12T10:02:30.001Z,61.70
2023-04-12T10:03:37.145Z,61.39
2023-04-12T10:04:46.381Z,62.14
2023-04-12T10:07:28.124Z,61.63
2023-04-12T10:08:42.930Z,62.08
2023-04-12T10:09:53.888Z,62.20
2023-04-12T10:11:17.127Z,61.98
2023-04-12T10:12:45.819Z,61.38
2023-04-12T10:13:56.625Z,60.99
2023-04-12T10:15:13.540Z,61.55
2023-04-12T10:17:55.210Z,61.05
2023-04-12T10:19:49.647Z,60.90
2023-04-12T10:21:04.563Z,61.37
2023-04-12T10:22:10.877Z,60.98
2023-04-12T10:23:21.603Z,61.13
2023-04-12T10:24:29.942Z,61.67
2023-04-12T10:25:43.999Z,61.27
2023-04-12T10:26:50.697Z,62.18
2023-04-12T10:28:08.126Z,61.40
2023-04-12T10:29:34.729Z,61.22
2023-04-12T10:30:43.400Z,60.89
2023-04-12T10:31:49.972Z,60.55
2023-04-12T10:33:10.171Z,61.15
2023-04-12T10:34:17.881Z,61.57
2023-04-12T10:35:32.070Z,61.85
2023-04-12T10:37:06.970Z,62.34
2023-04-12T10:38:16.419Z,62.56
2023-04-12T10:39:48.059Z,62.49
2023-04-12T10:41:18.824Z,62.59
2023-04-12T10:42:35.179Z,62.07
2023-04-12T10:43:44.702Z,62.15
2023-04-12T10:45:14.599Z,61.64
2023-04-12T10:47:05.276Z,61.32
2023-04-12T10:48:52.177Z,62.66
2023-04-12T10:50:28.077Z,62.63
2023-04-12T10:51:35.800Z,62.40
2023-04-12T10:52:46.737Z,62.27
2023-04-12T10:54:36.353Z,63.73
2023-04-12T10:55:42.841Z,62.87
2023-04-12T10:56:48.731Z,62.15
2023-04-12T10:57:54.719Z,62.66
2023-04-12T10:59:07.781Z,61.74
2023-04-12T11:00:13.606Z,61.72
2023-04-12T11:01:19.108Z,61.52
2023-04-12T11:02:23.900Z,61.89
2023-04-12T11:03:30.630Z,61.63
2023-04-12T11:04:37.406Z,61.48
2023-04-12T11:06:20.048Z,61.19
2023-04-12T11:07:50.721Z,61.23
2023-04-12T11:09:07.642Z,60.76
2023-04-12T11:10:25.040Z,61.50
2023-04-12T11:11:39.579Z,61.31
2023-04-12T11:13:03.174Z,61.02
2023-04-12T11:14:20.617Z,60.83
2023-04-12T11:15:37.891Z,60.09
2023-04-12T11:17:09.104Z,61.02
2023-04-12T11:18:21.055Z,60.84
2023-04-12T11:19:29.375Z,60.55
2023-04-12T11:20:34.546Z,60.31
2023-04-12T11:21:40.876Z,60.72
2023-04-12T11:22:45.747Z,60.52
2023-04-12T11:23:58.808Z,60.37
2023-04-12T11:25:03.757Z,59.82
2023-04-12T11:26:11.104Z,59.77
2023-04-12T11:27:17.133Z,59.88
2023-04-12T11:28:29.003Z,59.63
2023-04-12T11:29:38.249Z,60.30
2023-04-12T11:30:57.770Z,59.58
2023-04-12T11:32:11.820Z,59.39
2023-04-12T11:33:37.843Z,59.71
2023-04-12T11:34:46.864Z,60.17
2023-04-12T11:35:54.507Z,59.52
2023-04-12T11:37:00.685Z,60.39
2023-04-12T11:38:12.345Z,60.28
2023-04-12T11:39:18.933Z,59.69
2023-04-12T11:40:23.951Z,58.97
2023-04-12T11:41:28.454Z,59.38
2023-04-12T11:42:34.823Z,59.36
2023-04-12T11:43:42.164Z,59.30
2023-04-12T11:44:58.417Z,59.50
2023-04-12T11:46:04.437Z,59.22
2023-04-12T11:47:25.247Z,58.91
2023-04-12T11:48:30.262Z,59.45
2023-04-12T11:49:43.947Z,59.30
2023-04-12T11:50:59.936Z,59.48
2023-04-12T11:52:13.536Z,59.72
2023-04-12T11:53:19.740Z,59.62
2023-04-12T11:54:31.005Z,60.22
2023-04-12T11:55:36.030Z,60.12
2023-04-12T11:56:41.685Z,60.22
2023-04-12T11:57:56.110Z,59.79
2023-04-12T11:59:04.337Z,60.11
2023-04-12T12:00:10.171Z,59.78
2023-04-12T12:01:16.659Z,60.09
2023-04-12T12:02:23.856Z,59.91
2023-04-12T12:03:30.683Z,59.71
2023-04-12T12:04:43.658Z,59.29
2023-04-12T12:05:51.465Z,59.27
2023-04-12T12:06:59.203Z,59.60
2023-04-12T12:08:08.454Z,59.33
2023-04-12T12:09:15.072Z,59.53
2023-04-12T12:10:36.622Z,59.74
2023-04-12T12:11:45.103Z,59.54
2023-04-12T12:12:58.955Z,59.47
2023-04-12T12:14:04.091Z,59.23
2023-04-12T12:15:09.840Z,58.79
2023-04-12T12:16:16.128Z,58.94
2023-04-12T12:17:21.292Z,59.09
2023-04-12T12:18:29.443Z,59.40
2023-04-12T12:19:41.874Z,59.30
2023-04-12T12:20:52.992Z,59.00
2023-04-12T12:22:29.554Z,58.49
2023-04-12T12:23:35.817Z,58.65
2023-04-12T12:24:52.794Z,58.49
2023-04-12T12:26:17.045Z,58.67
2023-04-12T12:27:39.769Z,58.23
2023-04-12T12:28:51.204Z,58.29
2023-04-12T12:30:05.341Z,58.18
2023-04-12T12:31:12.808Z,58.47
2023-04-12T12:32:23.632Z,58.21
2023-04-12T12:34:00.253Z,58.38
2023-04-12T12:35:13.183Z,58.06
2023-04-12T12:36:39.076Z,58.81
2023-04-12T12:38:04.536Z,58.96
2023-04-12T12:39:12.193Z,58.35
2023-04-12T12:40:41.962Z,57.92
2023-04-12T12:43:23.064Z,58.31
2023-04-12T12:44:27.530Z,58.03
2023-04-12T12:45:41.859Z,58.57
2023-04-12T12:46:53.571Z,58.16
2023-04-12T12:48:05.278Z,58.11
2023-04-12T12:49:10.311Z,58.02
2023-04-12T12:50:17.319Z,57.66
2023-04-12T12:51:23.540Z,58.78
2023-04-12T12:52:31.162Z,58.32
2023-04-12T12:55:12.793Z,58.15
2023-04-12T12:56:21.612Z,58.37
2023-04-12T12:57:26.541Z,57.58
2023-04-12T12:58:32.022Z,58.08
2023-04-12T12:59:36.430Z,58.12
2023-04-12T13:00:41.498Z,58.09
2023-04-12T13:01:45.867Z,57.96
2023-04-12T13:02:52.795Z,58.37
2023-04-12T13:03:59.497Z,57.84
2023-04-12T13:05:08.068Z,57.43
2023-04-12T13:06:16.270Z,57.48
2023-04-12T13:07:29.798Z,57.09
2023-04-12T13:08:45.137Z,57.14
2023-04-12T13:09:55.210Z,57.50
2023-04-12T13:11:03.580Z,57.72
2023-04-12T13:12:16.359Z,57.01
2023-04-12T13:13:22.970Z,57.07
2023-04-12T13:14:29.706Z,56.52
2023-04-12T13:15:34.967Z,56.64
2023-04-12T13:16:42.795Z,56.56
2023-04-12T13:17:50.353Z,56.90
2023-04-12T13:18:55.325Z,57.12
2023-04-12T13:20:04.414Z,57.04
2023-04-12T13:21:09.798Z,57.35
2023-04-12T13:22:15.511Z,56.74
2023-04-12T13:23:25.786Z,56.69
2023-04-12T13:24:32.763Z,56.82
2023-04-12T13:25:36.634Z,56.89
2023-04-12T13:26:42.054Z,56.30
2023-04-12T13:27:51.714Z,57.23
2023-04-12T13:28:57.647Z,57.35
2023-04-12T13:30:03.404Z,57.84
2023-04-12T13:31:08.406Z,58.01
2023-04-12T13:32:14.767Z,57.28
2023-04-12T13:33:22.904Z,57.11
2023-04-12T13:34:28.122Z,57.00
2023-04-12T13:35:34.975Z,56.67
2023-04-12T13:36:39.908Z,56.24
2023-04-12T13:37:45.337Z,56.81
2023-04-12T13:38:51.898Z,56.47
2023-04-12T13:39:58.779Z,57.40
2023-04-12T13:41:11.814Z,57.12
2023-04-12T13:42:17.709Z,57.48
2023-04-12T13:43:23.238Z,57.26
2023-04-12T13:44:30.537Z,57.28
2023-04-12T13:45:39.271Z,57.12
2023-04-12T13:46:46.752Z,57.49
2023-04-12T13:48:01.011Z,57.60
2023-04-12T13:49:09.004Z,57.21
2023-04-12T13:51:51.645Z,56.31
2023-04-12T13:53:11.293Z,56.43
2023-04-12T13:54:18.747Z,56.66
2023-04-12T13:55:26.426Z,56.70
2023-04-12T13:56:31.934Z,56.84
2023-04-12T13:57:49.835Z,56.80
2023-04-12T13:58:55.706Z,57.15
2023-04-12T14:00:01.353Z,57.31
2023-04-12T14:01:10.853Z,57.08
2023-04-12T14:02:15.715Z,57.29
2023-04-12T14:03:21.460Z,56.96
2023-04-12T14:04:29.673Z,57.63
2023-04-12T14:05:35.630Z,57.62
2023-04-12T14:06:44.540Z,57.79
2023-04-12T14:07:50.790Z,57.71
2023-04-12T14:09:02.666Z,57.02
2023-04-12T14:10:09.749Z,57.25
2023-04-12T14:11:17.436Z,57.24
2023-04-12T14:12:38.862Z,57.33
2023-04-12T14:13:44.440Z,56.93
2023-04-12T14:14:49.817Z,57.56
2023-04-12T14:15:59.342Z,57.41
2023-04-12T14:17:13.796Z,57.31
2023-04-12T14:18:25.114Z,57.54
2023-04-12T14:19:30.965Z,57.53
2023-04-12T14:20:37.011Z,57.69
2023-04-12T14:21:44.147Z,57.72
2023-04-12T14:22:48.360Z,57.92
2023-04-12T14:23:53.372Z,57.57
2023-04-12T14:25:03.571Z,57.91
2023-04-12T14:26:24.715Z,57.86
2023-04-12T14:27:35.777Z,57.75
2023-04-12T14:28:40.100Z,58.01
2023-04-12T14:29:45.098Z,57.96
2023-04-12T14:31:04.268Z,58.27
2023-04-12T14:32:09.585Z,57.92
2023-04-12T14:33:14.349Z,58.54
2023-04-12T14:34:18.953Z,58.08
2023-04-12T14:35:23.235Z,58.03
2023-04-12T14:36:29.790Z,58.05
2023-04-12T14:37:56.200Z,57.88
2023-04-12T14:39:04.274Z,57.88
2023-04-12T14:40:11.078Z,58.01
2023-04-12T14:41:17.553Z,57.88
2023-04-12T14:42:25.074Z,57.85
2023-04-12T14:43:46.664Z,57.56
2023-04-12T14:44:51.094Z,57.58
2023-04-12T14:45:55.146Z,57.59
2023-04-12T14:46:59.337Z,58.29
2023-04-12T14:48:03.408Z,58.25
2023-04-12T14:49:07.479Z,58.24
2023-04-12T14:50:13.745Z,58.51
2023-04-12T14:51:17.770Z,58.29
2023-04-12T14:52:22.215Z,58.85
2023-04-12T14:53:25.908Z,58.72
2023-04-12T14:54:29.570Z,58.87
2023-04-12T14:55:33.387Z,58.86
2023-04-12T14:56:44.076Z,59.55
2023-04-12T14:57:53.482Z,59.53
2023-04-12T14:58:57.409Z,59.52
2023-04-12T15:00:01.448Z,59.59
2023-04-12T15:01:08.455Z,59.72
2023-04-12T15:02:12.985Z,60.03
2023-04-12T15:03:29.958Z,59.94
2023-04-12T15:04:33.798Z,59.84
2023-04-12T15:05:37.505Z,59.55
2023-04-12T15:06:44.928Z,59.67
2023-04-12T15:07:49.897Z,59.86
2023-04-12T15:08:58.598Z,59.94
2023-04-12T15:10:02.980Z,59.67
2023-04-12T15:11:13.516Z,59.92
2023-04-12T15:12:18.677Z,59.85
2023-04-12T15:13:26.685Z,59.80
2023-04-12T15:14:41.762Z,59.85
2023-04-12T15:15:47.509Z,60.02
2023-04-12T15:16:51.586Z,60.06
2023-04-12T15:17:55.530Z,59.97
2023-04-12T15:19:02.720Z,59.62
2023-04-12T15:20:17.676Z,59.63
2023-04-12T15:21:22.970Z,59.63
2023-04-12T15:22:27.122Z,59.11
2023-04-12T15:23:31.182Z,58.73